createdAt,value
2022-11-04T00:00:24.120Z,1
2022-11-04T00:01:22.303Z,3
2022-11-04T00:02:22.392Z,1
2022-11-04T00:03:22.309Z,1
2022-11-04T00:04:22.349Z,2
2022-11-04T00:05:22.395Z,1
2022-11-04T00:06:22.429Z,1
2022-11-04T00:07:22.338Z,2
2022-11-04T00:08:22.431Z,2
2022-11-04T00:09:22.460Z,2
2022-11-04T00:10:22.540Z,3
2022-11-04T00:11:22.465Z,4
2022-11-04T00:12:22.504Z,2
2022-11-04T00:13:22.538Z,1
2022-11-04T00:14:22.562Z,2
2022-11-04T00:15:22.555Z,2
2022-11-04T00:16:22.601Z,2
2022-11-04T00:17:22.651Z,1
2022-11-04T00:18:22.639Z,1
2022-11-04T00:19:22.326Z,3
2022-11-04T00:20:22.388Z,1
2022-11-04T00:21:22.376Z,2
2022-11-04T00:22:22.353Z,1
2022-11-04T00:23:22.325Z,1
2022-11-04T00:24:22.333Z,2
2022-11-04T00:25:22.327Z,1
2022-11-04T00:26:22.365Z,2
2022-11-04T00:27:22.351Z,2
2022-11-04T00:28:22.398Z,2
2022-11-04T00:29:22.438Z,1
2022-11-04T00:30:22.315Z,2
2022-11-04T00:31:22.402Z,2
2022-11-04T00:32:22.357Z,2
2022-11-04T00:33:22.320Z,1
2022-11-04T00:34:22.412Z,2
2022-11-04T00:35:22.342Z,1
2022-11-04T00:36:22.392Z,1
2022-11-04T00:37:22.431Z,1
2022-11-04T00:38:22.333Z,1
2022-11-04T00:39:22.318Z,2
2022-11-04T00:40:22.418Z,1
2022-11-04T00:41:22.341Z,1
2022-11-04T00:42:22.368Z,4
2022-11-04T00:43:22.406Z,1
2022-11-04T00:44:22.457Z,2
2022-11-04T00:45:22.334Z,2
2022-11-04T00:46:22.342Z,1
2022-11-04T00:47:22.341Z,1
2022-11-04T00:48:22.320Z,1
2022-11-04T00:49:22.321Z,1
2022-11-04T00:50:22.317Z,2
2022-11-04T00:51:22.486Z,2
2022-11-04T00:52:22.445Z,1
2022-11-04T00:53:22.322Z,2
2022-11-04T00:54:22.429Z,2
2022-11-04T00:55:22.316Z,1
2022-11-04T00:56:22.345Z,1
2022-11-04T00:57:22.544Z,1
2022-11-04T00:58:22.330Z,2
2022-11-04T00:59:22.394Z,1
2022-11-04T01:00:22.432Z,2
2022-11-04T01:01:22.655Z,1
2022-11-04T01:02:22.479Z,1
2022-11-04T01:03:22.395Z,2
2022-11-04T01:04:22.337Z,2
2022-11-04T01:05:22.324Z,1
2022-11-04T01:06:22.365Z,2
2022-11-04T01:07:22.472Z,2
2022-11-04T01:08:22.332Z,2
2022-11-04T01:09:22.355Z,2
2022-11-04T01:10:22.318Z,1
2022-11-04T01:11:22.348Z,2
2022-11-04T01:12:22.366Z,2
2022-11-04T01:13:22.319Z,4
2022-11-04T01:14:22.396Z,2
2022-11-04T01:15:22.430Z,2
2022-11-04T01:16:22.363Z,1
2022-11-04T01:17:22.346Z,2
2022-11-04T01:18:22.338Z,3
2022-11-04T01:19:22.333Z,2
2022-11-04T01:20:22.333Z,2
2022-11-04T01:21:22.313Z,2
2022-11-04T01:22:22.459Z,2
2022-11-04T01:23:22.417Z,2
2022-11-04T01:24:22.326Z,3
2022-11-04T01:25:22.330Z,1
2022-11-04T01:26:22.422Z,2
2022-11-04T01:27:22.327Z,2
2022-11-04T01:28:22.348Z,2
2022-11-04T01:29:22.311Z,2
2022-11-04T01:30:22.400Z,2
2022-11-04T01:31:22.321Z,3
2022-11-04T01:32:22.365Z,2
2022-11-04T01:33:22.340Z,3
2022-11-04T01:34:22.334Z,3
2022-11-04T01:35:22.319Z,2
2022-11-04T01:36:22.384Z,2
2022-11-04T01:37:22.417Z,3
2022-11-04T01:38:22.442Z,3
2022-11-04T01:39:22.338Z,2
2022-11-04T01:40:22.334Z,3
2022-11-04T01:41:22.372Z,3
2022-11-04T01:42:22.343Z,1
2022-11-04T01:43:22.334Z,1
2022-11-04T01:44:22.334Z,1
2022-11-04T01:45:22.378Z,1
2022-11-04T01:46:22.332Z,2
2022-11-04T01:47:22.330Z,2
2022-11-04T01:48:22.324Z,2
2022-11-04T01:49:22.380Z,1
2022-11-04T01:50:22.338Z,2
2022-11-04T01:51:22.348Z,1
2022-11-04T01:52:22.346Z,1
2022-11-04T01:53:22.434Z,1
2022-11-04T01:54:22.329Z,1
2022-11-04T01:55:22.341Z,1
2022-11-04T01:56:22.359Z,2
2022-11-04T01:57:22.341Z,1
2022-11-04T01:58:22.330Z,1
2022-11-04T01:59:22.411Z,3
2022-11-04T02:00:22.421Z,2
2022-11-04T02:01:22.619Z,2
2022-11-04T02:02:22.509Z,1
2022-11-04T02:03:22.327Z,1
2022-11-04T02:04:22.331Z,1
2022-11-04T02:05:22.320Z,2
2022-11-04T02:06:22.344Z,2
2022-11-04T02:07:22.384Z,2
2022-11-04T02:08:22.382Z,2
2022-11-04T02:09:22.318Z,1
2022-11-04T02:10:22.323Z,1
2022-11-04T02:11:22.344Z,1
2022-11-04T02:12:22.339Z,2
2022-11-04T02:13:22.381Z,2
2022-11-04T02:14:22.319Z,2
2022-11-04T02:15:22.401Z,1
2022-11-04T02:16:22.435Z,1
2022-11-04T02:17:22.336Z,2
2022-11-04T02:18:22.397Z,3
2022-11-04T02:19:22.328Z,2
2022-11-04T02:20:22.323Z,2
2022-11-04T02:21:22.444Z,2
2022-11-04T02:22:22.336Z,2
2022-11-04T02:23:22.430Z,2
2022-11-04T02:24:22.434Z,4
2022-11-04T02:25:22.318Z,4
2022-11-04T02:26:22.328Z,1
2022-11-04T02:27:22.344Z,2
2022-11-04T02:28:22.320Z,2
2022-11-04T02:29:22.322Z,1
2022-11-04T02:30:22.354Z,2
2022-11-04T02:31:22.387Z,2
2022-11-04T02:32:22.339Z,3
2022-11-04T02:33:22.327Z,2
2022-11-04T02:34:22.336Z,2
2022-11-04T02:35:22.336Z,2
2022-11-04T02:36:22.325Z,1
2022-11-04T02:37:22.328Z,2
2022-11-04T02:38:22.419Z,2
2022-11-04T02:39:22.429Z,2
2022-11-04T02:40:22.321Z,1
2022-11-04T02:41:22.402Z,3
2022-11-04T02:42:22.338Z,2
2022-11-04T02:43:22.336Z,1
2022-11-04T02:44:22.419Z,1
2022-11-04T02:45:22.315Z,2
2022-11-04T02:46:22.392Z,2
2022-11-04T02:47:22.450Z,2
2022-11-04T02:48:22.337Z,2
2022-11-04T02:49:22.327Z,3
2022-11-04T02:50:22.412Z,2
2022-11-04T02:51:22.342Z,1
2022-11-04T02:52:22.461Z,2
2022-11-04T02:53:22.411Z,3
2022-11-04T02:54:22.393Z,3
2022-11-04T02:55:22.319Z,4
2022-11-04T02:56:22.334Z,4
2022-11-04T02:57:22.353Z,4
2022-11-04T02:58:22.320Z,3
2022-11-04T02:59:22.314Z,2
2022-11-04T03:00:22.320Z,3
2022-11-04T03:01:22.548Z,2
2022-11-04T03:02:22.504Z,3
2022-11-04T03:03:22.316Z,2
2022-11-04T03:04:22.320Z,2
2022-11-04T03:05:22.301Z,3
2022-11-04T03:06:22.331Z,2
2022-11-04T03:07:22.326Z,2
2022-11-04T03:08:22.317Z,2
2022-11-04T03:09:22.464Z,2
2022-11-04T03:10:22.354Z,4
2022-11-04T03:11:22.330Z,2
2022-11-04T03:12:22.356Z,2
2022-11-04T03:13:22.318Z,3
2022-11-04T03:14:22.332Z,3
2022-11-04T03:15:22.417Z,3
2022-11-04T03:16:22.421Z,4
2022-11-04T03:17:22.470Z,3
2022-11-04T03:18:22.340Z,3
2022-11-04T03:19:22.437Z,4
2022-11-04T03:20:22.451Z,3
2022-11-04T03:21:22.343Z,4
2022-11-04T03:22:22.553Z,5
2022-11-04T03:23:22.444Z,3
2022-11-04T03:24:22.527Z,2
2022-11-04T03:25:22.564Z,2
2022-11-04T03:26:22.646Z,5
2022-11-04T03:27:22.646Z,6
2022-11-04T03:28:22.563Z,3
2022-11-04T03:29:22.634Z,2
2022-11-04T03:30:22.327Z,3
2022-11-04T03:31:22.336Z,4
2022-11-04T03:32:22.822Z,8
2022-11-04T03:33:22.332Z,6
2022-11-04T03:34:22.323Z,5
2022-11-04T03:35:22.381Z,6
2022-11-04T03:36:22.377Z,5
2022-11-04T03:37:22.346Z,6
2022-11-04T03:38:22.323Z,6
2022-11-04T03:39:22.424Z,6
2022-11-04T03:40:22.422Z,9
2022-11-04T03:41:22.345Z,7
2022-11-04T03:42:22.352Z,5
2022-11-04T03:43:22.334Z,10
2022-11-04T03:44:22.320Z,6
2022-11-04T03:45:22.367Z,7
2022-11-04T03:46:22.367Z,4
2022-11-04T03:47:22.417Z,5
2022-11-04T03:48:22.419Z,5
2022-11-04T03:49:22.326Z,6
2022-11-04T03:50:22.315Z,6
2022-11-04T03:51:22.326Z,4
2022-11-04T03:52:22.418Z,2
2022-11-04T03:53:22.411Z,4
2022-11-04T03:54:22.333Z,3
2022-11-04T03:55:22.404Z,4
2022-11-04T03:56:22.318Z,2
2022-11-04T03:57:22.372Z,4
2022-11-04T03:58:22.335Z,5
2022-11-04T03:59:22.346Z,2
2022-11-04T04:00:22.327Z,4
2022-11-04T04:01:22.476Z,5
2022-11-04T04:02:22.526Z,3
2022-11-04T04:03:22.461Z,3
2022-11-04T04:04:22.330Z,5
2022-11-04T04:05:22.395Z,6
2022-11-04T04:06:22.394Z,5
2022-11-04T04:07:22.417Z,4
2022-11-04T04:08:22.400Z,4
2022-11-04T04:09:22.306Z,5
2022-11-04T04:10:22.396Z,3
2022-11-04T04:11:22.427Z,3
2022-11-04T04:12:22.335Z,3
2022-11-04T04:13:22.332Z,1
2022-11-04T04:14:22.347Z,3
2022-11-04T04:15:22.338Z,5
2022-11-04T04:16:24.739Z,3
2022-11-04T04:17:22.346Z,6
2022-11-04T04:18:22.392Z,3
2022-11-04T04:19:22.318Z,6
2022-11-04T04:20:22.339Z,3
2022-11-04T04:21:22.315Z,3
2022-11-04T04:22:22.330Z,3
2022-11-04T04:23:22.329Z,3
2022-11-04T04:24:22.344Z,4
2022-11-04T04:25:22.418Z,4
2022-11-04T04:26:22.437Z,4
2022-11-04T04:27:22.347Z,4
2022-11-04T04:28:22.390Z,3
2022-11-04T04:29:22.316Z,3
2022-11-04T04:30:22.337Z,7
2022-11-04T04:31:22.402Z,4
2022-11-04T04:32:22.379Z,4
2022-11-04T04:33:22.400Z,4
2022-11-04T04:34:22.462Z,4
2022-11-04T04:35:22.335Z,4
2022-11-04T04:36:22.319Z,2
2022-11-04T04:37:22.345Z,4
2022-11-04T04:38:22.317Z,4
2022-11-04T04:39:22.314Z,3
2022-11-04T04:40:25.123Z,2
2022-11-04T04:41:22.430Z,2
2022-11-04T04:42:22.393Z,3
2022-11-04T04:43:22.327Z,3
2022-11-04T04:44:22.314Z,4
2022-11-04T04:45:22.320Z,2
2022-11-04T04:46:22.330Z,3
2022-11-04T04:47:22.340Z,2
2022-11-04T04:48:22.404Z,3
2022-11-04T04:49:22.415Z,5
2022-11-04T04:50:22.342Z,4
2022-11-04T04:51:22.322Z,6
2022-11-04T04:52:22.333Z,3
2022-11-04T04:53:22.312Z,2
2022-11-04T04:54:22.376Z,4
2022-11-04T04:55:22.371Z,3
2022-11-04T04:56:22.428Z,6
2022-11-04T04:57:22.331Z,3
2022-11-04T04:58:22.331Z,8
2022-11-04T04:59:22.325Z,5
2022-11-04T05:00:22.389Z,4
2022-11-04T05:01:22.549Z,3
2022-11-04T05:02:22.539Z,3
2022-11-04T05:03:22.396Z,3
2022-11-04T05:04:22.429Z,5
2022-11-04T05:05:22.343Z,2
2022-11-04T05:06:22.385Z,3
2022-11-04T05:07:22.366Z,2
2022-11-04T05:08:22.320Z,5
2022-11-04T05:09:22.767Z,4
2022-11-04T05:10:22.368Z,4
2022-11-04T05:11:26.150Z,6
2022-11-04T05:12:22.456Z,7
2022-11-04T05:13:22.320Z,8
2022-11-04T05:14:22.537Z,5
2022-11-04T05:15:22.326Z,4
2022-11-04T05:16:22.323Z,7
2022-11-04T05:17:22.644Z,4
2022-11-04T05:18:22.396Z,7
2022-11-04T05:19:22.593Z,4
2022-11-04T05:20:22.568Z,5
2022-11-04T05:21:22.332Z,6
2022-11-04T05:22:22.338Z,4
2022-11-04T05:23:22.412Z,4
2022-11-04T05:24:22.322Z,5
2022-11-04T05:25:22.327Z,7
2022-11-04T05:26:22.421Z,2
2022-11-04T05:27:22.450Z,8
2022-11-04T05:28:22.322Z,4
2022-11-04T05:29:22.410Z,4
2022-11-04T05:30:22.335Z,6
2022-11-04T05:31:22.321Z,3
2022-11-04T05:32:22.432Z,5
2022-11-04T05:33:22.329Z,5
2022-11-04T05:34:22.417Z,4
2022-11-04T05:35:22.427Z,6
2022-11-04T05:36:22.380Z,4
2022-11-04T05:37:22.336Z,5
2022-11-04T05:38:22.338Z,5
2022-11-04T05:39:22.302Z,4
2022-11-04T05:40:22.337Z,4
2022-11-04T05:41:22.309Z,5
2022-11-04T05:42:22.437Z,6
2022-11-04T05:43:22.398Z,5
2022-11-04T05:44:22.326Z,5
2022-11-04T05:45:22.423Z,4
2022-11-04T05:46:22.335Z,4
2022-11-04T05:47:22.345Z,5
2022-11-04T05:48:22.335Z,5
2022-11-04T05:49:22.398Z,6
2022-11-04T05:50:22.423Z,3
2022-11-04T05:51:22.312Z,16
2022-11-04T05:52:22.406Z,19
2022-11-04T05:53:22.403Z,16
2022-11-04T05:54:22.342Z,21
2022-11-04T05:55:22.431Z,28
2022-11-04T05:56:22.334Z,25
2022-11-04T05:57:22.445Z,15
2022-11-04T05:58:22.445Z,13
2022-11-04T05:59:22.329Z,14
2022-11-04T06:00:22.375Z,10
2022-11-04T06:01:22.374Z,11
2022-11-04T06:02:22.550Z,11
2022-11-04T06:03:22.387Z,11
2022-11-04T06:04:22.450Z,9
2022-11-04T06:05:22.452Z,10
2022-11-04T06:06:22.334Z,7
2022-11-04T06:07:22.464Z,8
2022-11-04T06:08:22.396Z,8
2022-11-04T06:09:22.322Z,9
2022-11-04T06:10:22.397Z,8
2022-11-04T06:11:22.325Z,8
2022-11-04T06:12:22.408Z,8
2022-11-04T06:13:22.428Z,10
2022-11-04T06:14:22.325Z,10
2022-11-04T06:15:22.318Z,10
2022-11-04T06:16:22.417Z,8
2022-11-04T06:17:22.341Z,7
2022-11-04T06:18:22.324Z,9
2022-11-04T06:19:22.318Z,8
2022-11-04T06:20:22.384Z,8
2022-11-04T06:21:22.317Z,9
2022-11-04T06:22:22.336Z,11
2022-11-04T06:23:22.315Z,7
2022-11-04T06:24:22.319Z,9
2022-11-04T06:25:22.332Z,6
2022-11-04T06:26:26.944Z,6
2022-11-04T06:27:22.442Z,6
2022-11-04T06:28:22.430Z,7
2022-11-04T06:29:22.322Z,6
2022-11-04T06:30:22.332Z,6
2022-11-04T06:31:22.350Z,6
2022-11-04T06:32:22.337Z,5
2022-11-04T06:33:22.313Z,7
2022-11-04T06:34:22.324Z,7
2022-11-04T06:35:22.396Z,7
2022-11-04T06:36:22.336Z,7
2022-11-04T06:37:22.350Z,6
2022-11-04T06:38:22.352Z,8
2022-11-04T06:39:22.411Z,11
2022-11-04T06:40:22.329Z,9
2022-11-04T06:41:22.316Z,7
2022-11-04T06:42:22.440Z,10
2022-11-04T06:43:22.420Z,11
2022-11-04T06:44:22.335Z,6
2022-11-04T06:45:22.321Z,7
2022-11-04T06:46:22.328Z,12
2022-11-04T06:47:24.958Z,8
2022-11-04T06:48:22.333Z,6
2022-11-04T06:49:22.323Z,9
2022-11-04T06:50:22.386Z,9
2022-11-04T06:51:22.430Z,7
2022-11-04T06:52:22.345Z,5
2022-11-04T06:53:22.310Z,5
2022-11-04T06:54:22.337Z,7
2022-11-04T06:55:22.318Z,4
2022-11-04T06:56:22.320Z,4
2022-11-04T06:57:22.361Z,5
2022-11-04T06:58:22.432Z,6
2022-11-04T06:59:22.337Z,5
2022-11-04T07:00:22.328Z,6
2022-11-04T07:01:22.681Z,6
2022-11-04T07:02:22.470Z,6
2022-11-04T07:03:22.317Z,5
2022-11-04T07:04:22.319Z,8
2022-11-04T07:05:22.432Z,5
2022-11-04T07:06:22.431Z,5
2022-11-04T07:07:22.341Z,4
2022-11-04T07:08:22.417Z,4
2022-11-04T07:09:22.340Z,7
2022-11-04T07:10:22.360Z,7
2022-11-04T07:11:22.401Z,6
2022-11-04T07:12:22.384Z,7
2022-11-04T07:13:22.375Z,6
2022-11-04T07:14:22.441Z,5
2022-11-04T07:15:27.255Z,3
2022-11-04T07:16:22.339Z,9
2022-11-04T07:17:22.424Z,5
2022-11-04T07:18:22.323Z,7
2022-11-04T07:19:22.334Z,6
2022-11-04T07:20:22.401Z,4
2022-11-04T07:21:22.403Z,4
2022-11-04T07:22:22.343Z,8
2022-11-04T07:23:22.383Z,7
2022-11-04T07:24:22.347Z,4
2022-11-04T07:25:22.314Z,5
2022-11-04T07:26:22.334Z,4
2022-11-04T07:27:22.351Z,6
2022-11-04T07:28:22.386Z,8
2022-11-04T07:29:22.388Z,6
2022-11-04T07:30:22.318Z,4
2022-11-04T07:31:22.411Z,6
2022-11-04T07:32:22.332Z,8
2022-11-04T07:33:22.315Z,4
2022-11-04T07:34:22.341Z,6
2022-11-04T07:35:22.322Z,6
2022-11-04T07:36:22.394Z,9
2022-11-04T07:37:22.353Z,6
2022-11-04T07:38:22.330Z,8
2022-11-04T07:39:22.319Z,5
2022-11-04T07:40:22.340Z,6
2022-11-04T07:41:22.333Z,7
2022-11-04T07:42:22.350Z,9
2022-11-04T07:43:22.376Z,11
2022-11-04T07:44:22.424Z,6
2022-11-04T07:45:22.324Z,5
2022-11-04T07:46:22.320Z,6
2022-11-04T07:47:22.374Z,5
2022-11-04T07:48:22.335Z,5
2022-11-04T07:49:22.320Z,7
2022-11-04T07:50:22.421Z,6
2022-11-04T07:51:22.378Z,6
2022-11-04T07:52:22.338Z,6
2022-11-04T07:53:22.314Z,4
2022-11-04T07:54:22.330Z,11
2022-11-04T07:55:22.320Z,6
2022-11-04T07:56:22.314Z,6
2022-11-04T07:57:22.353Z,6
2022-11-04T07:58:22.420Z,7
2022-11-04T07:59:22.423Z,4
2022-11-04T08:00:22.332Z,6
2022-11-04T08:01:22.456Z,8
2022-11-04T08:02:27.581Z,7
2022-11-04T08:03:22.395Z,4
2022-11-04T08:04:22.392Z,5
2022-11-04T08:05:22.321Z,7
2022-11-04T08:06:22.389Z,5
2022-11-04T08:07:22.444Z,5
2022-11-04T08:08:22.316Z,5
2022-11-04T08:09:22.419Z,8
2022-11-04T08:10:22.323Z,6
2022-11-04T08:11:22.385Z,6
2022-11-04T08:12:22.365Z,8
2022-11-04T08:13:22.321Z,5
2022-11-04T08:14:22.397Z,8
2022-11-04T08:15:22.327Z,5
2022-11-04T08:16:22.324Z,5
2022-11-04T08:17:22.352Z,5
2022-11-04T08:18:22.400Z,6
2022-11-04T08:19:22.335Z,5
2022-11-04T08:20:22.369Z,5
2022-11-04T08:21:22.405Z,6
2022-11-04T08:22:22.447Z,6
2022-11-04T08:23:22.329Z,5
2022-11-04T08:24:22.396Z,5
2022-11-04T08:25:22.323Z,5
2022-11-04T08:26:22.326Z,5
2022-11-04T08:27:22.430Z,7
2022-11-04T08:28:22.342Z,6
2022-11-04T08:29:22.400Z,3
2022-11-04T08:30:22.430Z,7
2022-11-04T08:31:22.333Z,5
2022-11-04T08:32:22.348Z,5
2022-11-04T08:33:22.326Z,4
2022-11-04T08:34:22.321Z,5
2022-11-04T08:35:22.321Z,6
2022-11-04T08:36:22.326Z,9
2022-11-04T08:37:22.447Z,7
2022-11-04T08:38:22.340Z,6
2022-11-04T08:39:22.344Z,4
2022-11-04T08:40:22.332Z,7
2022-11-04T08:41:22.304Z,4
2022-11-04T08:42:22.382Z,6
2022-11-04T08:43:22.310Z,7
2022-11-04T08:44:22.422Z,7
2022-11-04T08:45:22.427Z,6
2022-11-04T08:46:22.329Z,7
2022-11-04T08:47:22.317Z,8
2022-11-04T08:48:22.325Z,6
2022-11-04T08:49:22.405Z,6
2022-11-04T08:50:22.327Z,8
2022-11-04T08:51:22.314Z,3
2022-11-04T08:52:22.420Z,6
2022-11-04T08:53:22.305Z,5
2022-11-04T08:54:22.310Z,5
2022-11-04T08:55:22.344Z,7
2022-11-04T08:56:22.393Z,4
2022-11-04T08:57:22.414Z,9
2022-11-04T08:58:22.414Z,3
2022-11-04T08:59:22.314Z,6
2022-11-04T09:00:22.509Z,5
2022-11-04T09:01:22.543Z,6
2022-11-04T09:02:22.456Z,8
2022-11-04T09:03:22.569Z,6
2022-11-04T09:04:22.531Z,9
2022-11-04T09:05:22.538Z,6
2022-11-04T09:06:22.515Z,10
2022-11-04T09:07:22.414Z,7
2022-11-04T09:08:22.663Z,9
2022-11-04T09:09:22.738Z,4
2022-11-04T09:10:22.358Z,5
2022-11-04T09:11:22.327Z,6
2022-11-04T09:12:22.693Z,8
2022-11-04T09:13:22.423Z,8
2022-11-04T09:14:22.321Z,9
2022-11-04T09:15:22.396Z,4
2022-11-04T09:16:22.312Z,7
2022-11-04T09:17:22.352Z,7
2022-11-04T09:18:22.338Z,7
2022-11-04T09:19:22.382Z,10
2022-11-04T09:20:22.401Z,8
2022-11-04T09:21:22.332Z,12
2022-11-04T09:22:22.343Z,7
2022-11-04T09:23:22.426Z,6
2022-11-04T09:24:22.323Z,6
2022-11-04T09:25:22.329Z,12
2022-11-04T09:26:22.323Z,6
2022-11-04T09:27:22.362Z,7
2022-11-04T09:28:22.332Z,8
2022-11-04T09:29:22.353Z,7
2022-11-04T09:30:22.423Z,8
2022-11-04T09:31:22.431Z,5
2022-11-04T09:32:22.345Z,7
2022-11-04T09:33:22.341Z,6
2022-11-04T09:34:22.335Z,4
2022-11-04T09:35:22.329Z,8
2022-11-04T09:36:22.346Z,6
2022-11-04T09:37:22.347Z,6
2022-11-04T09:38:22.406Z,5
2022-11-04T09:39:22.439Z,7
2022-11-04T09:40:22.458Z,6
2022-11-04T09:41:22.331Z,9
2022-11-04T09:42:22.440Z,6
2022-11-04T09:43:22.326Z,9
2022-11-04T09:44:22.445Z,8
2022-11-04T09:45:23.296Z,6
2022-11-04T09:46:22.434Z,9
2022-11-04T09:47:22.337Z,5
2022-11-04T09:48:22.336Z,8
2022-11-04T09:49:22.329Z,5
2022-11-04T09:50:22.338Z,6
2022-11-04T09:51:47.800Z,5
2022-11-04T09:52:22.340Z,8
2022-11-04T09:53:22.405Z,5
2022-11-04T09:54:22.460Z,5
2022-11-04T09:55:22.338Z,6
2022-11-04T09:56:22.351Z,5
2022-11-04T09:57:22.371Z,6
2022-11-04T09:58:22.407Z,6
2022-11-04T09:59:22.419Z,6
2022-11-04T10:00:22.331Z,4
2022-11-04T10:01:22.580Z,8
2022-11-04T10:02:22.699Z,7
2022-11-04T10:03:22.350Z,7
2022-11-04T10:04:22.329Z,8
2022-11-04T10:05:22.319Z,6
2022-11-04T10:06:22.343Z,6
2022-11-04T10:07:22.346Z,7
2022-11-04T10:08:22.340Z,7
2022-11-04T10:09:22.430Z,5
2022-11-04T10:10:22.322Z,5
2022-11-04T10:11:22.337Z,7
2022-11-04T10:12:22.360Z,6
2022-11-04T10:13:22.331Z,6
2022-11-04T10:14:22.315Z,7
2022-11-04T10:15:22.532Z,9
2022-11-04T10:16:22.413Z,6
2022-11-04T10:17:22.455Z,4
2022-11-04T10:18:22.338Z,5
2022-11-04T10:19:22.327Z,8
2022-11-04T10:20:22.331Z,6
2022-11-04T10:21:22.330Z,9
2022-11-04T10:22:22.342Z,4
2022-11-04T10:23:22.325Z,6
2022-11-04T10:24:22.398Z,6
2022-11-04T10:25:22.428Z,5
2022-11-04T10:26:22.355Z,3
2022-11-04T10:27:22.383Z,6
2022-11-04T10:28:22.318Z,3
2022-11-04T10:29:22.377Z,6
2022-11-04T10:30:22.327Z,4
2022-11-04T10:31:22.326Z,6
2022-11-04T10:32:22.794Z,8
2022-11-04T10:33:22.329Z,6
2022-11-04T10:34:22.320Z,6
2022-11-04T10:35:22.322Z,6
2022-11-04T10:36:22.366Z,7
2022-11-04T10:37:22.362Z,7
2022-11-04T10:38:22.364Z,5
2022-11-04T10:39:22.390Z,6
2022-11-04T10:40:22.428Z,6
2022-11-04T10:41:22.333Z,6
2022-11-04T10:42:22.366Z,7
2022-11-04T10:43:22.330Z,5
2022-11-04T10:44:22.341Z,8
2022-11-04T10:45:22.320Z,5
2022-11-04T10:46:22.493Z,6
2022-11-04T10:47:22.412Z,5
2022-11-04T10:48:22.449Z,6
2022-11-04T10:49:22.325Z,5
2022-11-04T10:50:28.966Z,5
2022-11-04T10:51:22.342Z,6
2022-11-04T10:52:23.191Z,5
2022-11-04T10:53:22.334Z,8
2022-11-04T10:54:22.327Z,5
2022-11-04T10:55:22.399Z,5
2022-11-04T10:56:22.420Z,5
2022-11-04T10:57:22.445Z,6
2022-11-04T10:58:22.337Z,6
2022-11-04T10:59:22.340Z,4
2022-11-04T11:00:22.411Z,5
2022-11-04T11:01:22.721Z,4
2022-11-04T11:02:22.677Z,5
2022-11-04T11:03:22.600Z,6
2022-11-04T11:04:22.332Z,4
2022-11-04T11:05:22.400Z,5
2022-11-04T11:06:22.338Z,7
2022-11-04T11:07:22.356Z,4
2022-11-04T11:08:22.412Z,4
2022-11-04T11:09:22.332Z,5
2022-11-04T11:10:22.404Z,6
2022-11-04T11:11:22.463Z,4
2022-11-04T11:12:49.536Z,4
2022-11-04T11:13:22.344Z,3
2022-11-04T11:14:22.322Z,3
2022-11-04T11:15:22.336Z,3
2022-11-04T11:16:22.378Z,3
2022-11-04T11:17:22.423Z,5
2022-11-04T11:18:22.381Z,4
2022-11-04T11:19:22.343Z,5
2022-11-04T11:20:22.340Z,5
2022-11-04T11:21:22.335Z,4
2022-11-04T11:22:22.349Z,4
2022-11-04T11:23:22.340Z,4
2022-11-04T11:24:22.345Z,3
2022-11-04T11:25:22.426Z,4
2022-11-04T11:26:22.444Z,5
2022-11-04T11:27:22.360Z,5
2022-11-04T11:28:22.464Z,4
2022-11-04T11:29:22.338Z,4
2022-11-04T11:30:22.348Z,4
2022-11-04T11:31:22.413Z,5
2022-11-04T11:32:22.359Z,3
2022-11-04T11:33:22.417Z,4
2022-11-04T11:34:22.436Z,5
2022-11-04T11:35:22.344Z,6
2022-11-04T11:36:22.375Z,5
2022-11-04T11:37:22.339Z,3
2022-11-04T11:38:22.349Z,4
2022-11-04T11:39:22.430Z,5
2022-11-04T11:40:22.382Z,4
2022-11-04T11:41:25.239Z,4
2022-11-04T11:42:22.381Z,4
2022-11-04T11:43:22.374Z,4
2022-11-04T11:44:22.327Z,3
2022-11-04T11:45:22.411Z,3
2022-11-04T11:46:22.333Z,6
2022-11-04T11:47:22.378Z,5
2022-11-04T11:48:22.463Z,5
2022-11-04T11:49:22.507Z,4
2022-11-04T11:50:22.322Z,4
2022-11-04T11:51:24.286Z,5
2022-11-04T11:52:22.410Z,2
2022-11-04T11:53:22.337Z,4
2022-11-04T11:54:22.346Z,3
2022-11-04T11:55:22.345Z,2
2022-11-04T11:56:22.405Z,4
2022-11-04T11:57:25.503Z,5
2022-11-04T12:00:38.042Z,4
2022-11-04T12:01:25.514Z,4
2022-11-04T12:02:22.520Z,4
2022-11-04T12:03:23.705Z,4
2022-11-04T12:06:22.398Z,3
2022-11-04T12:09:23.574Z,3
2022-11-04T12:10:44.664Z,4
2022-11-04T12:11:22.373Z,5
2022-11-04T12:12:22.480Z,3
2022-11-04T12:13:24.623Z,2
2022-11-04T12:14:22.342Z,4
2022-11-04T12:15:22.332Z,3
2022-11-04T12:16:22.387Z,3
2022-11-04T12:17:22.353Z,3
2022-11-04T12:18:22.348Z,4
2022-11-04T12:19:22.419Z,3
2022-11-04T12:20:22.455Z,3
2022-11-04T12:21:22.350Z,4
2022-11-04T12:22:22.441Z,3
2022-11-04T12:23:22.356Z,4
2022-11-04T12:24:22.408Z,4
2022-11-04T12:25:22.462Z,4
2022-11-04T12:26:22.339Z,3
2022-11-04T12:27:22.449Z,4
2022-11-04T12:28:22.455Z,3
2022-11-04T12:29:22.366Z,3
2022-11-04T12:30:29.800Z,6
2022-11-04T12:31:22.427Z,5
2022-11-04T12:32:22.361Z,5
2022-11-04T12:33:22.353Z,3
2022-11-04T12:34:22.342Z,4
2022-11-04T12:35:22.430Z,4
2022-11-04T12:36:22.352Z,4
2022-11-04T12:37:22.358Z,5
2022-11-04T12:38:22.345Z,5
2022-11-04T12:39:22.352Z,3
2022-11-04T12:40:22.348Z,3
2022-11-04T12:42:26.696Z,3
2022-11-04T12:43:22.451Z,4
2022-11-04T12:44:22.358Z,2
2022-11-04T12:45:22.434Z,2
2022-11-04T12:46:22.345Z,4
2022-11-04T12:47:22.376Z,4
2022-11-04T12:48:22.510Z,3
2022-11-04T12:49:22.368Z,4
2022-11-04T12:50:22.417Z,2
2022-11-04T12:51:22.461Z,3
2022-11-04T12:52:22.458Z,2
2022-11-04T12:53:22.344Z,2
2022-11-04T12:54:22.366Z,3
2022-11-04T12:55:22.364Z,3
2022-11-04T12:56:22.349Z,2
2022-11-04T12:57:22.392Z,3
2022-11-04T12:58:22.462Z,3
2022-11-04T12:59:22.323Z,3
2022-11-04T13:00:22.356Z,3
2022-11-04T13:01:22.488Z,4
2022-11-04T13:02:22.589Z,3
2022-11-04T13:03:22.366Z,5
2022-11-04T13:04:22.354Z,3
2022-11-04T13:05:22.418Z,6
2022-11-04T13:06:22.532Z,4
2022-11-04T13:07:22.374Z,3
2022-11-04T13:08:22.361Z,5
2022-11-04T13:09:22.362Z,3
2022-11-04T13:10:22.375Z,4
2022-11-04T13:11:22.377Z,6
2022-11-04T13:12:22.373Z,4
2022-11-04T13:13:22.424Z,5
2022-11-04T13:14:22.466Z,6
2022-11-04T13:15:22.341Z,4
2022-11-04T13:16:22.352Z,4
2022-11-04T13:17:22.369Z,3
2022-11-04T13:18:22.364Z,3
2022-11-04T13:19:22.347Z,6
2022-11-04T13:20:22.363Z,3
2022-11-04T13:21:22.432Z,4
2022-11-04T13:22:22.360Z,4
2022-11-04T13:23:22.352Z,4
2022-11-04T13:24:22.349Z,2
2022-11-04T13:25:22.424Z,6
2022-11-04T13:26:22.350Z,3
2022-11-04T13:27:22.394Z,4
2022-11-04T13:28:22.382Z,3
2022-11-04T13:29:22.517Z,2
2022-11-04T13:30:22.361Z,4
2022-11-04T13:31:22.353Z,3
2022-11-04T13:32:22.380Z,3
2022-11-04T13:33:22.499Z,4
2022-11-04T13:34:23.476Z,2
2022-11-04T13:35:22.366Z,3
2022-11-04T13:36:22.487Z,4
2022-11-04T13:37:22.514Z,2
2022-11-04T13:38:22.355Z,4
2022-11-04T13:39:22.369Z,3
2022-11-04T13:40:22.353Z,5
2022-11-04T13:41:22.372Z,3
2022-11-04T13:42:22.478Z,3
2022-11-04T13:43:22.361Z,4
2022-11-04T13:44:22.461Z,4
2022-11-04T13:45:22.459Z,2
2022-11-04T13:46:22.364Z,2
2022-11-04T13:47:22.613Z,3
2022-11-04T13:48:22.445Z,3
2022-11-04T13:49:22.353Z,6
2022-11-04T13:50:22.361Z,2
2022-11-04T13:51:22.356Z,3
2022-11-04T13:52:22.484Z,4
2022-11-04T13:53:22.369Z,5
2022-11-04T13:54:22.358Z,2
2022-11-04T13:55:22.374Z,5
2022-11-04T13:56:32.969Z,2
2022-11-04T13:57:22.395Z,4
2022-11-04T13:58:22.359Z,3
2022-11-04T13:59:22.543Z,4
2022-11-04T14:00:22.481Z,3
2022-11-04T14:01:22.494Z,2
2022-11-04T14:02:22.416Z,4
2022-11-04T14:03:22.369Z,5
2022-11-04T14:04:22.422Z,4
2022-11-04T14:05:22.443Z,4
2022-11-04T14:06:28.175Z,4
2022-11-04T14:07:22.455Z,3
2022-11-04T14:08:22.525Z,3
2022-11-04T14:09:22.424Z,4
2022-11-04T14:10:22.404Z,4
2022-11-04T14:11:22.429Z,3
2022-11-04T14:12:22.457Z,4
2022-11-04T14:13:22.464Z,4
2022-11-04T14:14:22.413Z,3
2022-11-04T14:15:22.438Z,5
2022-11-04T14:16:22.517Z,3
2022-11-04T14:17:22.435Z,3
2022-11-04T14:18:22.705Z,4
2022-11-04T14:19:22.425Z,4
2022-11-04T14:20:22.413Z,3
2022-11-04T14:21:22.461Z,3
2022-11-04T14:22:22.436Z,4
2022-11-04T14:23:22.458Z,4
2022-11-04T14:24:22.433Z,5
2022-11-04T14:25:22.430Z,6
2022-11-04T14:26:22.419Z,6
2022-11-04T14:27:22.450Z,11
2022-11-04T14:28:22.451Z,12
2022-11-04T14:29:22.457Z,11
2022-11-04T14:30:22.473Z,7
2022-11-04T14:31:22.459Z,7
2022-11-04T14:32:22.480Z,12
2022-11-04T14:33:22.487Z,8
2022-11-04T14:34:22.405Z,7
2022-11-04T14:35:22.428Z,5
2022-11-04T14:36:22.444Z,5
2022-11-04T14:37:22.431Z,6
2022-11-04T14:38:22.418Z,13
2022-11-04T14:39:22.481Z,10
2022-11-04T14:40:22.414Z,9
2022-11-04T14:41:22.419Z,18
2022-11-04T14:42:22.416Z,10
2022-11-04T14:43:22.427Z,10
2022-11-04T14:44:22.449Z,6
2022-11-04T14:45:22.417Z,6
2022-11-04T14:46:22.428Z,11
2022-11-04T14:47:22.514Z,8
2022-11-04T14:48:22.429Z,6
2022-11-04T14:49:22.412Z,5
2022-11-04T14:50:22.412Z,8
2022-11-04T14:51:22.414Z,6
2022-11-04T14:52:22.433Z,5